Kimberly Turecamo — WDC6838 — position and weather

sailwx.info

Track history (hours):
 
Tides and Currents Weather Stations Pressure Air Temp Water Temp Dewpoint Dewpoint Depression Visibility Wind Speed Wind Dir Waves Ship Positions

Kimberly Turecamo

Owner: Moran Towing Corporation, New Canaan, CT. More information available from US FCC via Universal Licensing System and Coast Guard Vessel Documentation Center.

Last reported at 2014-Nov-24 00:33 UTC. Time now 2014-Nov-24 01:29 UTC.
Position N 40°40' W 074°02'.

Length 33 m; draft 5 m.

Type: Tug. MMSI: 367061980.

Date/timePositionNaut miles runAvg speedWind from/ knotsBaromVisibWave heightAir tempDewpointWater temp
2014-Nov-24 00:33N 40°40' W 074°02'0 0.0
2014-Nov-23 23:33N 40°40' W 074°02'0 0.1
2014-Nov-23 22:33N 40°40' W 074°02'0 0.1
2014-Nov-23 21:33N 40°40' W 074°02'0 0.0
2014-Nov-23 20:32N 40°40' W 074°02'0 0.0
2014-Nov-23 19:32N 40°40' W 074°02'0 0.0
2014-Nov-23 18:32N 40°40' W 074°02'0 0.0
2014-Nov-23 17:32N 40°40' W 074°02'0 0.0
2014-Nov-23 16:32N 40°40' W 074°02'0 0.0
2014-Nov-23 15:32N 40°40' W 074°02'0 0.1
2014-Nov-23 14:32N 40°40' W 074°02'0 0.0
2014-Nov-23 13:32N 40°40' W 074°02'0 0.0
2014-Nov-23 12:32N 40°40' W 074°02'0 0.0
2014-Nov-23 11:29N 40°40' W 074°02'0 0.0
2014-Nov-23 10:32N 40°40' W 074°02'0 0.1
2014-Nov-23 09:29N 40°40' W 074°02'0 0.1
2014-Nov-23 08:32N 40°40' W 074°02'0 0.0
2014-Nov-23 07:32N 40°40' W 074°02'3 3.2
2014-Nov-23 06:33N 40°39' W 074°06'2 1.4
2014-Nov-23 05:19N 40°38' W 074°08'1 1.2
2014-Nov-23 04:28N 40°39' W 074°07'0 0.0
2014-Nov-23 03:16N 40°39' W 074°07'0 0.0
2014-Nov-23 02:22N 40°39' W 074°07'4 4.8
2014-Nov-23 01:32N 40°40' W 074°02'0 0.0
2014-Nov-23 00:31N 40°40' W 074°02'0 0.0
2014-Nov-22 23:31N 40°40' W 074°02'0 0.0
2014-Nov-22 22:31N 40°40' W 074°02'0 0.1
2014-Nov-22 21:28N 40°40' W 074°02'4 4.7
2014-Nov-22 20:34N 40°36' W 074°02'5 4.1
2014-Nov-22 19:24N 40°31' W 074°00'34 6.4
2014-Nov-22 14:05N 39°57' W 073°57'4 7.5
2014-Nov-22 13:33N 39°53' W 073°58'7 7.5
2014-Nov-22 12:33N 39°46' W 073°59'8 7.5
2014-Nov-22 11:33N 39°39' W 074°02'7 7.5
2014-Nov-22 10:33N 39°32' W 074°06'60 4.5
2014-Nov-21 21:14N 39°16' W 075°20'710.4
2014-Nov-21 20:32N 39°21' W 075°27'1010.0
2014-Nov-21 19:33N 39°30' W 075°34'9 9.1
2014-Nov-21 18:33N 39°39' W 075°34'5 2.2
2014-Nov-21 16:24N 39°43' W 075°31'0 0.0
2014-Nov-21 15:33N 39°43' W 075°31'0 0.0
2014-Nov-21 14:33N 39°43' W 075°31'0 0.0
2014-Nov-21 13:33N 39°43' W 075°31'0 0.0
2014-Nov-21 12:33N 39°43' W 075°31'0 0.0
2014-Nov-21 11:33N 39°43' W 075°31'0 0.0
2014-Nov-21 10:33N 39°43' W 075°31'0 0.0
2014-Nov-21 09:33N 39°43' W 075°31'0 0.0
2014-Nov-21 08:33N 39°43' W 075°31'0 0.0
2014-Nov-21 07:27N 39°43' W 075°31'0 0.0
2014-Nov-21 06:33N 39°43' W 075°31'0 0.0
2014-Nov-21 05:30N 39°43' W 075°31'0 0.0
2014-Nov-21 04:33N 39°43' W 075°31'0 0.0
2014-Nov-21 03:33N 39°43' W 075°31'1 0.6
2014-Nov-21 02:32N 39°43' W 075°30'0 0.0
2014-Nov-21 01:32N 39°43' W 075°30'0 0.1
2014-Nov-21 00:33N 39°43' W 075°30'0 0.0
2014-Nov-20 23:32N 39°43' W 075°30'0 0.0
2014-Nov-20 22:26N 39°43' W 075°30'0 0.0
2014-Nov-20 21:32N 39°43' W 075°30'2 1.7
2014-Nov-20 20:33N 39°41' W 075°31'7 6.7
2014-Nov-20 19:33N 39°35' W 075°33'7 7.2
2014-Nov-20 18:33N 39°27' W 075°34'67 4.4
2014-Nov-20 03:17N 39°35' W 074°07'7 8.5
2014-Nov-20 02:31N 39°41' W 074°03'10 8.9
2014-Nov-20 01:26N 39°50' W 073°60'18 9.3
2014-Nov-19 23:27N 40°08' W 073°57'18 9.3
2014-Nov-19 21:31N 40°26' W 073°54'8 8.4
2014-Nov-19 20:33N 40°32' W 074°01'9 8.7
2014-Nov-19 19:33N 40°40' W 074°03'9 1.7
2014-Nov-19 14:12N 40°49' W 073°58'0 0.0
2014-Nov-19 12:06N 40°49' W 073°58'0 0.0
2014-Nov-19 11:15N 40°49' W 073°58'0 0.0
2014-Nov-19 07:30N 40°49' W 073°59'0 0.0
2014-Nov-19 02:30N 40°49' W 073°58'0 0.0
2014-Nov-18 15:05N 40°49' W 073°59'1 1.9
2014-Nov-18 14:33N 40°48' W 073°59'1 0.4
2014-Nov-18 11:24N 40°49' W 073°58'0 0.0
2014-Nov-18 10:33N 40°49' W 073°58'0 0.1
2014-Nov-18 09:21N 40°49' W 073°58'0 0.0
2014-Nov-18 07:03N 40°49' W 073°58'0 0.0
2014-Nov-18 06:33N 40°49' W 073°59'0 0.0
2014-Nov-18 00:06N 40°49' W 073°58'1 0.4
2014-Nov-17 22:33N 40°48' W 073°59'6 5.6
2014-Nov-17 21:33N 40°43' W 073°59'7 6.5
2014-Nov-17 20:31N 40°48' W 073°54'16 7.9
2014-Nov-17 18:29N 40°56' W 073°35'9 9.6
2014-Nov-17 17:33N 41°00' W 073°25'10 9.6
2014-Nov-17 16:30N 41°01' W 073°11'9 9.5
2014-Nov-17 15:31N 41°00' W 072°59'9 9.5
2014-Nov-17 14:34N 41°01' W 072°47'6 6.1
2014-Nov-17 13:33N 41°00' W 072°39'0 0.0
2014-Nov-17 12:33N 41°00' W 072°39'0 0.0
2014-Nov-17 11:33N 41°00' W 072°39'0 0.0
2014-Nov-17 10:15N 41°00' W 072°39'0 0.0
2014-Nov-17 09:33N 41°00' W 072°39'0 0.0
2014-Nov-17 08:32N 41°00' W 072°39'0 0.0
2014-Nov-17 07:32N 41°00' W 072°39'0 0.0
2014-Nov-17 06:32N 41°00' W 072°39'0 0.0
2014-Nov-17 05:23N 41°00' W 072°39'0 0.0
2014-Nov-17 04:32N 41°00' W 072°39'0 0.0
2014-Nov-17 03:32N 41°00' W 072°39'0 0.0
2014-Nov-17 02:32N 41°00' W 072°39'0 0.0
2014-Nov-17 01:32N 41°00' W 072°39'0 0.0
2014-Nov-17 00:32N 41°00' W 072°39'0 0.0
2014-Nov-16 23:32N 41°00' W 072°39'0 0.0
2014-Nov-16 22:32N 41°00' W 072°39'0 0.0
2014-Nov-16 21:32N 41°00' W 072°39'0 0.4
2014-Nov-16 20:33N 41°00' W 072°39'0 0.2
2014-Nov-16 19:34N 41°00' W 072°38'0 0.1
2014-Nov-16 18:33N 41°00' W 072°38'2 1.7
2014-Nov-16 17:34N 41°01' W 072°40'8 8.3
2014-Nov-16 16:34N 41°01' W 072°51'10 8.8
2014-Nov-16 15:28N 41°00' W 073°04'8 8.9
2014-Nov-16 14:33N 41°00' W 073°15'8 8.5
2014-Nov-16 13:33N 40°59' W 073°26'22 7.3
2014-Nov-16 10:33N 40°48' W 073°51'6 6.4
2014-Nov-16 09:33N 40°45' W 073°58'5 4.8
2014-Nov-16 08:33N 40°41' W 074°02'4 3.7
2014-Nov-16 07:33N 40°37' W 074°03'2 1.6
2014-Nov-16 06:32N 40°36' W 074°01'0 0.1
2014-Nov-16 05:32N 40°36' W 074°02'0 0.1
2014-Nov-16 04:23N 40°36' W 074°02'1 0.9
2014-Nov-16 03:24N 40°35' W 074°02'3 4.1
2014-Nov-16 02:33N 40°32' W 074°01'7 5.6
2014-Nov-16 01:21N 40°28' W 073°53'32 6.6
2014-Nov-15 20:31N 39°57' W 073°59'7 6.8
2014-Nov-15 19:33N 39°50' W 073°60'7 6.7
2014-Nov-15 18:33N 39°43' W 074°02'7 6.7
2014-Nov-15 17:34N 39°38' W 074°06'61 4.0
2014-Nov-15 02:18N 39°15' W 075°20'7 9.4
2014-Nov-15 01:33N 39°20' W 075°26'9 8.7
2014-Nov-15 00:33N 39°27' W 075°33'8 7.7
2014-Nov-14 23:33N 39°35' W 075°33'6 6.2
2014-Nov-14 22:33N 39°41' W 075°31'  
Track history (hours):
 
Tides and Currents Weather Stations Pressure Air Temp Water Temp Dewpoint Dewpoint Depression Visibility Wind Speed Wind Dir Waves Ship Positions

Kimberly Turecamo

Owner: Moran Towing Corporation, New Canaan, CT. More information available from US FCC via Universal Licensing System and Coast Guard Vessel Documentation Center.

Last reported at 2014-Nov-24 00:33 UTC. Time now 2014-Nov-24 01:29 UTC.
Position N 40°40' W 074°02'.

Length 33 m; draft 5 m.

Type: Tug. MMSI: 367061980.

Date/timePositionNaut miles runAvg speedWind from/ knotsBaromVisibWave heightAir tempDewpointWater temp
2014-Nov-24 00:33N 40°40' W 074°02'0 0.0
2014-Nov-23 23:33N 40°40' W 074°02'0 0.1
2014-Nov-23 22:33N 40°40' W 074°02'0 0.1
2014-Nov-23 21:33N 40°40' W 074°02'0 0.0
2014-Nov-23 20:32N 40°40' W 074°02'0 0.0
2014-Nov-23 19:32N 40°40' W 074°02'0 0.0
2014-Nov-23 18:32N 40°40' W 074°02'0 0.0
2014-Nov-23 17:32N 40°40' W 074°02'0 0.0
2014-Nov-23 16:32N 40°40' W 074°02'0 0.0
2014-Nov-23 15:32N 40°40' W 074°02'0 0.1
2014-Nov-23 14:32N 40°40' W 074°02'0 0.0
2014-Nov-23 13:32N 40°40' W 074°02'0 0.0
2014-Nov-23 12:32N 40°40' W 074°02'0 0.0
2014-Nov-23 11:29N 40°40' W 074°02'0 0.0
2014-Nov-23 10:32N 40°40' W 074°02'0 0.1
2014-Nov-23 09:29N 40°40' W 074°02'0 0.1
2014-Nov-23 08:32N 40°40' W 074°02'0 0.0
2014-Nov-23 07:32N 40°40' W 074°02'3 3.2
2014-Nov-23 06:33N 40°39' W 074°06'2 1.4
2014-Nov-23 05:19N 40°38' W 074°08'1 1.2
2014-Nov-23 04:28N 40°39' W 074°07'0 0.0
2014-Nov-23 03:16N 40°39' W 074°07'0 0.0
2014-Nov-23 02:22N 40°39' W 074°07'4 4.8
2014-Nov-23 01:32N 40°40' W 074°02'0 0.0
2014-Nov-23 00:31N 40°40' W 074°02'0 0.0
2014-Nov-22 23:31N 40°40' W 074°02'0 0.0
2014-Nov-22 22:31N 40°40' W 074°02'0 0.1
2014-Nov-22 21:28N 40°40' W 074°02'4 4.7
2014-Nov-22 20:34N 40°36' W 074°02'5 4.1
2014-Nov-22 19:24N 40°31' W 074°00'34 6.4
2014-Nov-22 14:05N 39°57' W 073°57'4 7.5
2014-Nov-22 13:33N 39°53' W 073°58'7 7.5
2014-Nov-22 12:33N 39°46' W 073°59'8 7.5
2014-Nov-22 11:33N 39°39' W 074°02'7 7.5
2014-Nov-22 10:33N 39°32' W 074°06'60 4.5
2014-Nov-21 21:14N 39°16' W 075°20'710.4
2014-Nov-21 20:32N 39°21' W 075°27'1010.0
2014-Nov-21 19:33N 39°30' W 075°34'9 9.1
2014-Nov-21 18:33N 39°39' W 075°34'5 2.2
2014-Nov-21 16:24N 39°43' W 075°31'0 0.0
2014-Nov-21 15:33N 39°43' W 075°31'0 0.0
2014-Nov-21 14:33N 39°43' W 075°31'0 0.0
2014-Nov-21 13:33N 39°43' W 075°31'0 0.0
2014-Nov-21 12:33N 39°43' W 075°31'0 0.0
2014-Nov-21 11:33N 39°43' W 075°31'0 0.0
2014-Nov-21 10:33N 39°43' W 075°31'0 0.0
2014-Nov-21 09:33N 39°43' W 075°31'0 0.0
2014-Nov-21 08:33N 39°43' W 075°31'0 0.0
2014-Nov-21 07:27N 39°43' W 075°31'0 0.0
2014-Nov-21 06:33N 39°43' W 075°31'0 0.0
2014-Nov-21 05:30N 39°43' W 075°31'0 0.0
2014-Nov-21 04:33N 39°43' W 075°31'0 0.0
2014-Nov-21 03:33N 39°43' W 075°31'1 0.6
2014-Nov-21 02:32N 39°43' W 075°30'0 0.0
2014-Nov-21 01:32N 39°43' W 075°30'0 0.1
2014-Nov-21 00:33N 39°43' W 075°30'0 0.0
2014-Nov-20 23:32N 39°43' W 075°30'0 0.0
2014-Nov-20 22:26N 39°43' W 075°30'0 0.0
2014-Nov-20 21:32N 39°43' W 075°30'2 1.7
2014-Nov-20 20:33N 39°41' W 075°31'7 6.7
2014-Nov-20 19:33N 39°35' W 075°33'7 7.2
2014-Nov-20 18:33N 39°27' W 075°34'67 4.4
2014-Nov-20 03:17N 39°35' W 074°07'7 8.5
2014-Nov-20 02:31N 39°41' W 074°03'10 8.9
2014-Nov-20 01:26N 39°50' W 073°60'18 9.3
2014-Nov-19 23:27N 40°08' W 073°57'18 9.3
2014-Nov-19 21:31N 40°26' W 073°54'8 8.4
2014-Nov-19 20:33N 40°32' W 074°01'9 8.7
2014-Nov-19 19:33N 40°40' W 074°03'9 1.7
2014-Nov-19 14:12N 40°49' W 073°58'0 0.0
2014-Nov-19 12:06N 40°49' W 073°58'0 0.0
2014-Nov-19 11:15N 40°49' W 073°58'0 0.0
2014-Nov-19 07:30N 40°49' W 073°59'0 0.0
2014-Nov-19 02:30N 40°49' W 073°58'0 0.0
2014-Nov-18 15:05N 40°49' W 073°59'1 1.9
2014-Nov-18 14:33N 40°48' W 073°59'1 0.4
2014-Nov-18 11:24N 40°49' W 073°58'0 0.0
2014-Nov-18 10:33N 40°49' W 073°58'0 0.1
2014-Nov-18 09:21N 40°49' W 073°58'0 0.0
2014-Nov-18 07:03N 40°49' W 073°58'0 0.0
2014-Nov-18 06:33N 40°49' W 073°59'0 0.0
2014-Nov-18 00:06N 40°49' W 073°58'1 0.4
2014-Nov-17 22:33N 40°48' W 073°59'6 5.6
2014-Nov-17 21:33N 40°43' W 073°59'7 6.5
2014-Nov-17 20:31N 40°48' W 073°54'16 7.9
2014-Nov-17 18:29N 40°56' W 073°35'9 9.6
2014-Nov-17 17:33N 41°00' W 073°25'10 9.6
2014-Nov-17 16:30N 41°01' W 073°11'9 9.5
2014-Nov-17 15:31N 41°00' W 072°59'9 9.5
2014-Nov-17 14:34N 41°01' W 072°47'6 6.1
2014-Nov-17 13:33N 41°00' W 072°39'0 0.0
2014-Nov-17 12:33N 41°00' W 072°39'0 0.0
2014-Nov-17 11:33N 41°00' W 072°39'0 0.0
2014-Nov-17 10:15N 41°00' W 072°39'0 0.0
2014-Nov-17 09:33N 41°00' W 072°39'0 0.0
2014-Nov-17 08:32N 41°00' W 072°39'0 0.0
2014-Nov-17 07:32N 41°00' W 072°39'0 0.0
2014-Nov-17 06:32N 41°00' W 072°39'0 0.0
2014-Nov-17 05:23N 41°00' W 072°39'0 0.0
2014-Nov-17 04:32N 41°00' W 072°39'0 0.0
2014-Nov-17 03:32N 41°00' W 072°39'0 0.0
2014-Nov-17 02:32N 41°00' W 072°39'0 0.0
2014-Nov-17 01:32N 41°00' W 072°39'0 0.0
2014-Nov-17 00:32N 41°00' W 072°39'0 0.0
2014-Nov-16 23:32N 41°00' W 072°39'0 0.0
2014-Nov-16 22:32N 41°00' W 072°39'0 0.0
2014-Nov-16 21:32N 41°00' W 072°39'0 0.4
2014-Nov-16 20:33N 41°00' W 072°39'0 0.2
2014-Nov-16 19:34N 41°00' W 072°38'0 0.1
2014-Nov-16 18:33N 41°00' W 072°38'2 1.7
2014-Nov-16 17:34N 41°01' W 072°40'8 8.3
2014-Nov-16 16:34N 41°01' W 072°51'10 8.8
2014-Nov-16 15:28N 41°00' W 073°04'8 8.9
2014-Nov-16 14:33N 41°00' W 073°15'8 8.5
2014-Nov-16 13:33N 40°59' W 073°26'22 7.3
2014-Nov-16 10:33N 40°48' W 073°51'6 6.4
2014-Nov-16 09:33N 40°45' W 073°58'5 4.8
2014-Nov-16 08:33N 40°41' W 074°02'4 3.7
2014-Nov-16 07:33N 40°37' W 074°03'2 1.6
2014-Nov-16 06:32N 40°36' W 074°01'0 0.1
2014-Nov-16 05:32N 40°36' W 074°02'0 0.1
2014-Nov-16 04:23N 40°36' W 074°02'1 0.9
2014-Nov-16 03:24N 40°35' W 074°02'3 4.1
2014-Nov-16 02:33N 40°32' W 074°01'7 5.6
2014-Nov-16 01:21N 40°28' W 073°53'32 6.6
2014-Nov-15 20:31N 39°57' W 073°59'7 6.8
2014-Nov-15 19:33N 39°50' W 073°60'7 6.7
2014-Nov-15 18:33N 39°43' W 074°02'7 6.7
2014-Nov-15 17:34N 39°38' W 074°06'61 4.0
2014-Nov-15 02:18N 39°15' W 075°20'7 9.4
2014-Nov-15 01:33N 39°20' W 075°26'9 8.7
2014-Nov-15 00:33N 39°27' W 075°33'8 7.7
2014-Nov-14 23:33N 39°35' W 075°33'6 6.2
2014-Nov-14 22:33N 39°41' W 075°31'  

Dump ship's entire track history